Time;durP1;ratioP1;P1;durP2;ratioP2;P2;SDS_P1;SDS_P2;PMS_P1;PMS_P2;Temp;Humidity;BMP_temperature;BMP_pressure;BME280_temperature;BME280_humidity;BME280_pressure;Samples;Min_cycle;Max_cycle;Signal;HPM_P1;HPM_P2
2022/07/14 00:00:09;;;;;;;2.10;1.10;;;;;;;;;;5088851;28;20200;-58
2022/07/14 00:02:56;;;;;;;1.77;1.30;;;;;;;;;;5090139;28;20230;-59
2022/07/14 00:05:44;;;;;;;2.70;1.40;;;;;;;;;;5090243;28;20246;-58
2022/07/14 00:08:31;;;;;;;1.43;1.13;;;;;;;;;;5090789;28;20204;-58
2022/07/14 00:11:18;;;;;;;2.77;1.30;;;;;;;;;;5091128;28;20285;-59
2022/07/14 00:14:05;;;;;;;0.73;0.60;;;;;;;;;;5089604;28;20211;-59
2022/07/14 00:16:52;;;;;;;2.33;1.03;;;;;;;;;;5091791;28;20655;-58
2022/07/14 00:19:39;;;;;;;1.93;1.00;;;;;;;;;;5090408;28;20215;-58
2022/07/14 00:22:28;;;;;;;1.00;0.83;;;;;;;;;;5090472;28;20230;-59
2022/07/14 00:25:15;;;;;;;2.10;1.20;;;;;;;;;;5091141;28;20557;-59
2022/07/14 00:28:02;;;;;;;2.13;1.33;;;;;;;;;;5087336;28;20222;-58
2022/07/14 00:30:51;;;;;;;2.20;1.20;;;;;;;;;;5090553;28;20208;-58
2022/07/14 00:33:39;;;;;;;1.97;1.10;;;;;;;;;;5082750;28;20240;-59
2022/07/14 00:36:26;;;;;;;1.20;1.10;;;;;;;;;;5077405;28;20338;-59
2022/07/14 00:39:15;;;;;;;1.63;1.00;;;;;;;;;;5060461;28;20280;-58
2022/07/14 00:42:02;;;;;;;2.13;1.33;;;;;;;;;;5068807;28;20226;-58
2022/07/14 00:44:49;;;;;;;2.20;1.30;;;;;;;;;;5069105;28;20740;-58
2022/07/14 00:47:36;;;;;;;2.77;1.30;;;;;;;;;;5069809;28;20212;-57
2022/07/14 00:50:23;;;;;;;1.10;1.00;;;;;;;;;;5068162;28;20291;-59
2022/07/14 00:53:10;;;;;;;2.07;1.40;;;;;;;;;;5069157;28;20197;-58
2022/07/14 00:55:59;;;;;;;2.43;1.13;;;;;;;;;;5068929;28;20215;-58
2022/07/14 00:58:46;;;;;;;1.17;0.87;;;;;;;;;;5067515;28;20216;-58
2022/07/14 01:01:33;;;;;;;1.23;0.97;;;;;;;;;;5068764;28;20240;-58
2022/07/14 01:04:20;;;;;;;2.70;1.37;;;;;;;;;;5069155;28;20710;-58
2022/07/14 01:07:07;;;;;;;1.13;0.83;;;;;;;;;;5067609;28;20553;-58
2022/07/14 01:09:54;;;;;;;1.97;1.00;;;;;;;;;;5067787;28;20196;-58
2022/07/14 01:12:45;;;;;;;1.90;1.07;;;;;;;;;;5068173;28;20216;-58
2022/07/14 01:15:32;;;;;;;2.10;0.93;;;;;;;;;;5067071;28;20206;-59
2022/07/14 01:18:19;;;;;;;1.77;1.20;;;;;;;;;;5068097;28;20697;-58
2022/07/14 01:21:09;;;;;;;2.13;1.10;;;;;;;;;;5068386;28;20215;-58
2022/07/14 01:23:56;;;;;;;1.90;1.07;;;;;;;;;;5068872;28;20254;-58
2022/07/14 01:26:43;;;;;;;1.40;1.07;;;;;;;;;;5067844;28;20659;-59
2022/07/14 01:29:30;;;;;;;1.57;1.20;;;;;;;;;;5069165;28;20208;-58
2022/07/14 01:32:17;;;;;;;1.27;0.90;;;;;;;;;;5067620;28;20337;-58
2022/07/14 01:35:05;;;;;;;2.50;1.40;;;;;;;;;;5067820;28;20203;-58
2022/07/14 01:37:53;;;;;;;1.97;1.13;;;;;;;;;;5080222;28;20231;-58
2022/07/14 01:40:40;;;;;;;1.07;0.90;;;;;;;;;;5106784;28;20209;-59
2022/07/14 01:43:29;;;;;;;1.50;0.90;;;;;;;;;;5106313;28;20230;-58
2022/07/14 01:46:16;;;;;;;2.27;1.23;;;;;;;;;;5109590;28;20209;-58
2022/07/14 01:49:03;;;;;;;1.50;0.97;;;;;;;;;;5101604;28;20277;-60
2022/07/14 01:51:50;;;;;;;1.50;1.17;;;;;;;;;;5108455;28;20205;-59
2022/07/14 01:54:39;;;;;;;1.73;1.13;;;;;;;;;;5107609;28;20201;-58
2022/07/14 01:57:25;;;;;;;1.77;0.90;;;;;;;;;;5106559;28;20214;-59
2022/07/14 02:00:13;;;;;;;1.63;1.00;;;;;;;;;;5106939;28;20204;-59
2022/07/14 02:03:00;;;;;;;1.67;1.00;;;;;;;;;;5106180;28;20202;-58
2022/07/14 02:05:47;;;;;;;1.20;0.80;;;;;;;;;;5108747;28;20229;-58
2022/07/14 02:08:34;;;;;;;2.83;1.30;;;;;;;;;;5109744;28;20212;-58
2022/07/14 02:14:28;;;;;;;1.87;1.10;;;;;;;;;;5109707;28;20311;-58
2022/07/14 02:17:15;;;;;;;2.10;1.20;;;;;;;;;;5112233;28;20654;-59
2022/07/14 02:20:03;;;;;;;1.90;0.93;;;;;;;;;;5111609;28;20194;-58
2022/07/14 02:22:50;;;;;;;1.87;0.93;;;;;;;;;;5111207;28;20212;-58
2022/07/14 02:25:37;;;;;;;1.27;0.83;;;;;;;;;;5109729;28;20227;-58
2022/07/14 02:28:25;;;;;;;1.73;1.10;;;;;;;;;;5111901;28;20676;-58
2022/07/14 02:31:12;;;;;;;1.33;0.90;;;;;;;;;;5113038;28;20299;-58
2022/07/14 02:33:59;;;;;;;1.43;0.90;;;;;;;;;;5111145;28;20270;-58
2022/07/14 02:36:47;;;;;;;2.17;1.10;;;;;;;;;;5111817;28;20272;-58
2022/07/14 02:39:34;;;;;;;2.57;1.23;;;;;;;;;;5112381;28;20217;-58
2022/07/14 02:42:21;;;;;;;1.17;0.87;;;;;;;;;;5111164;28;20657;-59
2022/07/14 02:45:10;;;;;;;1.13;0.80;;;;;;;;;;5114194;28;20224;-58
2022/07/14 02:47:57;;;;;;;1.40;1.00;;;;;;;;;;5110863;28;20206;-58
2022/07/14 02:50:45;;;;;;;1.53;0.87;;;;;;;;;;5109563;28;20233;-58
2022/07/14 02:53:32;;;;;;;1.37;0.97;;;;;;;;;;5110500;28;20665;-59
2022/07/14 02:56:19;;;;;;;3.43;1.17;;;;;;;;;;5110994;28;20209;-58
2022/07/14 02:59:07;;;;;;;1.30;1.10;;;;;;;;;;5109868;28;20270;-58
2022/07/14 03:01:55;;;;;;;0.87;0.83;;;;;;;;;;5108270;28;20278;-58
2022/07/14 03:04:42;;;;;;;1.67;1.10;;;;;;;;;;5111312;28;20231;-58
2022/07/14 03:07:29;;;;;;;1.30;1.10;;;;;;;;;;5109821;28;20279;-59
2022/07/14 03:10:16;;;;;;;1.80;1.00;;;;;;;;;;5109223;28;20665;-58
2022/07/14 03:13:03;;;;;;;1.73;1.10;;;;;;;;;;5109759;28;20716;-58
2022/07/14 03:15:50;;;;;;;1.80;1.00;;;;;;;;;;5110427;28;20264;-58
2022/07/14 03:18:40;;;;;;;2.33;0.97;;;;;;;;;;5111768;28;20227;-59
2022/07/14 03:21:27;;;;;;;1.37;0.97;;;;;;;;;;5110038;28;20200;-58
2022/07/14 03:24:14;;;;;;;1.57;0.67;;;;;;;;;;5107457;28;20233;-58
2022/07/14 03:27:02;;;;;;;2.10;1.17;;;;;;;;;;5109801;28;20578;-59
2022/07/14 03:29:48;;;;;;;2.13;1.10;;;;;;;;;;5107486;28;20215;-59
2022/07/14 03:32:36;;;;;;;0.60;0.60;;;;;;;;;;5109211;28;20658;-58
2022/07/14 03:35:24;;;;;;;1.13;0.80;;;;;;;;;;5110222;28;21043;-58
2022/07/14 03:38:11;;;;;;;2.47;1.47;;;;;;;;;;5110406;28;20201;-58
2022/07/14 03:41:02;;;;;;;1.77;1.20;;;;;;;;;;5107151;28;20198;-58
2022/07/14 03:43:49;;;;;;;1.77;1.00;;;;;;;;;;5107698;28;20218;-59
2022/07/14 03:46:36;;;;;;;1.37;0.83;;;;;;;;;;5110507;28;20274;-59
2022/07/14 03:49:23;;;;;;;2.17;1.00;;;;;;;;;;5109524;28;20201;-58
2022/07/14 03:52:11;;;;;;;0.97;0.80;;;;;;;;;;5109280;28;20201;-58
2022/07/14 03:54:58;;;;;;;0.80;0.80;;;;;;;;;;5110264;28;20212;-58
2022/07/14 03:57:45;;;;;;;1.40;0.90;;;;;;;;;;5110821;28;20263;-57
2022/07/14 04:00:33;;;;;;;1.10;0.90;;;;;;;;;;5108335;28;20636;-58
2022/07/14 04:03:20;;;;;;;1.27;0.87;;;;;;;;;;5108461;28;20243;-58
2022/07/14 04:06:07;;;;;;;1.57;1.17;;;;;;;;;;5109837;28;20227;-58
2022/07/14 04:08:57;;;;;;;1.27;0.90;;;;;;;;;;5109749;28;20291;-57
2022/07/14 04:11:44;;;;;;;3.40;1.13;;;;;;;;;;5106318;28;20216;-58
2022/07/14 04:14:31;;;;;;;2.27;0.93;;;;;;;;;;5109987;28;20199;-58
2022/07/14 04:17:17;;;;;;;1.20;0.77;;;;;;;;;;5107928;28;20205;-58
2022/07/14 04:20:05;;;;;;;1.77;1.20;;;;;;;;;;5111316;28;20654;-58
2022/07/14 04:22:52;;;;;;;2.33;1.30;;;;;;;;;;5110261;28;20280;-59
2022/07/14 04:25:41;;;;;;;2.23;1.20;;;;;;;;;;5109529;28;20244;-59
2022/07/14 04:28:28;;;;;;;1.27;0.97;;;;;;;;;;5110144;28;20206;-59
2022/07/14 04:31:15;;;;;;;2.10;1.10;;;;;;;;;;5109816;28;20211;-58
2022/07/14 04:34:02;;;;;;;1.00;0.80;;;;;;;;;;5110188;28;20203;-58
2022/07/14 04:36:49;;;;;;;1.20;0.83;;;;;;;;;;5107584;28;20728;-58
2022/07/14 04:39:36;;;;;;;1.40;0.77;;;;;;;;;;5106125;28;20676;-58
2022/07/14 04:42:24;;;;;;;1.87;0.90;;;;;;;;;;5109197;28;20300;-58
2022/07/14 04:45:11;;;;;;;2.03;1.00;;;;;;;;;;5109397;28;20226;-58
2022/07/14 04:47:58;;;;;;;1.90;0.87;;;;;;;;;;5107242;28;20204;-58
2022/07/14 04:53:50;;;;;;;1.83;0.90;;;;;;;;;;5108817;28;20271;-59
2022/07/14 04:56:37;;;;;;;1.87;0.70;;;;;;;;;;5105808;28;20281;-58
2022/07/14 04:59:25;;;;;;;2.73;1.37;;;;;;;;;;5109068;28;20294;-58
2022/07/14 05:02:12;;;;;;;1.57;1.10;;;;;;;;;;5108352;28;20701;-58
2022/07/14 05:04:59;;;;;;;1.30;0.90;;;;;;;;;;5107634;28;20740;-64
2022/07/14 05:07:46;;;;;;;2.37;1.00;;;;;;;;;;5108788;28;20228;-59
2022/07/14 05:10:33;;;;;;;0.73;0.73;;;;;;;;;;5107047;28;20961;-59
2022/07/14 05:13:20;;;;;;;1.50;1.07;;;;;;;;;;5106582;28;20284;-58
2022/07/14 05:16:09;;;;;;;1.53;0.90;;;;;;;;;;5108163;28;20219;-58
2022/07/14 05:18:55;;;;;;;2.00;0.90;;;;;;;;;;5108926;28;20205;-58
2022/07/14 05:21:42;;;;;;;2.37;1.07;;;;;;;;;;5109287;28;20246;-58
2022/07/14 05:24:29;;;;;;;1.23;0.80;;;;;;;;;;5105297;28;20228;-59
2022/07/14 05:27:16;;;;;;;2.20;1.30;;;;;;;;;;5106816;28;20703;-58
2022/07/14 05:30:04;;;;;;;1.73;1.00;;;;;;;;;;5107204;28;20199;-58
2022/07/14 05:32:53;;;;;;;2.50;0.97;;;;;;;;;;5108431;28;20657;-59
2022/07/14 05:35:40;;;;;;;2.53;1.30;;;;;;;;;;5106278;28;20223;-59
2022/07/14 05:38:27;;;;;;;0.93;0.87;;;;;;;;;;5105654;28;20330;-59
2022/07/14 05:41:15;;;;;;;1.73;1.17;;;;;;;;;;5107942;28;20203;-58
2022/07/14 05:44:02;;;;;;;3.03;1.20;;;;;;;;;;5102639;28;20206;-58
2022/07/14 05:46:49;;;;;;;2.03;1.23;;;;;;;;;;5105426;28;20215;-59
2022/07/14 05:49:40;;;;;;;2.00;1.20;;;;;;;;;;5104131;28;20203;-58
2022/07/14 05:52:28;;;;;;;1.73;1.10;;;;;;;;;;5103872;28;20344;-59
2022/07/14 05:55:15;;;;;;;1.40;1.00;;;;;;;;;;5105346;28;20199;-59
2022/07/14 05:58:01;;;;;;;3.07;1.40;;;;;;;;;;5106040;28;20203;-58
2022/07/14 06:00:48;;;;;;;1.67;1.10;;;;;;;;;;5106415;28;20203;-58
2022/07/14 06:03:36;;;;;;;2.17;1.27;;;;;;;;;;5107228;28;20226;-60
2022/07/14 06:06:25;;;;;;;1.85;0.95;;;;;;;;;;5107432;28;20240;-59
2022/07/14 06:09:12;;;;;;;2.55;1.33;;;;;;;;;;5108363;28;20235;-58
2022/07/14 06:11:58;;;;;;;1.85;1.10;;;;;;;;;;5107707;28;20257;-59
2022/07/14 06:14:45;;;;;;;1.50;1.07;;;;;;;;;;5108914;28;20219;-58
2022/07/14 06:17:32;;;;;;;1.38;0.95;;;;;;;;;;5107567;28;20208;-59
2022/07/14 06:20:20;;;;;;;2.83;1.38;;;;;;;;;;5108414;28;20208;-58
2022/07/14 06:23:09;;;;;;;2.38;1.27;;;;;;;;;;5105216;28;20755;-59
2022/07/14 06:25:56;;;;;;;2.30;1.60;;;;;;;;;;5108626;28;20228;-67
2022/07/14 06:28:43;;;;;;;2.08;1.25;;;;;;;;;;5106015;28;20664;-59
2022/07/14 06:31:33;;;;;;;1.98;1.20;;;;;;;;;;5109240;28;20289;-59
2022/07/14 06:34:20;;;;;;;2.67;1.27;;;;;;;;;;5109131;28;20212;-59
2022/07/14 06:37:07;;;;;;;1.25;0.90;;;;;;;;;;5106990;28;20230;-59
2022/07/14 06:39:56;;;;;;;1.33;0.90;;;;;;;;;;5107205;28;20256;-59
2022/07/14 06:42:43;;;;;;;2.63;0.93;;;;;;;;;;5108000;28;20245;-59
2022/07/14 06:45:30;;;;;;;3.28;1.20;;;;;;;;;;5107163;28;20233;-58
2022/07/14 06:48:17;;;;;;;1.73;1.10;;;;;;;;;;5107965;28;20258;-59
2022/07/14 06:51:04;;;;;;;2.50;1.25;;;;;;;;;;5106864;28;20280;-58
2022/07/14 06:53:51;;;;;;;1.67;1.17;;;;;;;;;;5108023;28;20198;-59
2022/07/14 06:56:39;;;;;;;2.05;1.15;;;;;;;;;;5104278;28;20279;-59
2022/07/14 06:59:26;;;;;;;1.17;0.90;;;;;;;;;;5106838;28;20202;-58
2022/07/14 07:02:13;;;;;;;1.10;0.98;;;;;;;;;;5109045;28;20206;-58
2022/07/14 07:08:06;;;;;;;2.00;1.00;;;;;;;;;;5109113;28;20235;-60
2022/07/14 07:10:56;;;;;;;1.80;1.20;;;;;;;;;;5110835;28;20586;-57
2022/07/14 07:13:44;;;;;;;1.20;0.82;;;;;;;;;;5110928;28;20214;-56
2022/07/14 07:16:31;;;;;;;0.88;0.80;;;;;;;;;;5112009;28;20544;-56
2022/07/14 07:19:18;;;;;;;2.13;1.10;;;;;;;;;;5109830;28;20202;-57
2022/07/14 07:22:05;;;;;;;1.63;1.10;;;;;;;;;;5111702;28;20240;-56
2022/07/14 07:24:52;;;;;;;2.30;1.13;;;;;;;;;;5110038;28;20205;-56
2022/07/14 07:27:40;;;;;;;1.77;0.90;;;;;;;;;;5110529;28;20201;-58
2022/07/14 07:30:28;;;;;;;1.30;0.93;;;;;;;;;;5109660;28;20230;-57
2022/07/14 07:33:15;;;;;;;1.60;0.85;;;;;;;;;;5110394;28;20206;-58
2022/07/14 07:36:02;;;;;;;1.88;1.13;;;;;;;;;;5109782;28;20226;-57
2022/07/14 07:38:49;;;;;;;1.05;0.95;;;;;;;;;;5111840;28;20569;-57
2022/07/14 07:41:37;;;;;;;1.10;1.05;;;;;;;;;;5111364;28;20198;-56
2022/07/14 07:44:25;;;;;;;2.28;1.05;;;;;;;;;;5110389;28;20198;-56
2022/07/14 07:47:13;;;;;;;1.30;0.88;;;;;;;;;;5108564;28;20290;-56
2022/07/14 07:50:01;;;;;;;1.23;0.95;;;;;;;;;;5110876;28;20205;-56
2022/07/14 07:52:48;;;;;;;1.00;0.80;;;;;;;;;;5110015;28;20202;-56
2022/07/14 07:55:35;;;;;;;1.88;1.05;;;;;;;;;;5108623;28;20194;-57
2022/07/14 07:58:22;;;;;;;1.15;0.60;;;;;;;;;;5108854;28;20202;-57
2022/07/14 08:01:10;;;;;;;1.63;0.90;;;;;;;;;;5109725;28;20255;-56
2022/07/14 08:03:58;;;;;;;1.20;0.90;;;;;;;;;;5108322;28;20284;-57
2022/07/14 08:06:46;;;;;;;1.40;1.08;;;;;;;;;;5107402;28;20298;-56
2022/07/14 08:09:33;;;;;;;0.77;0.70;;;;;;;;;;5109648;28;20338;-57
2022/07/14 08:12:20;;;;;;;1.23;1.10;;;;;;;;;;5109742;28;20210;-57
2022/07/14 08:15:07;;;;;;;1.20;0.93;;;;;;;;;;5109617;28;20229;-56
2022/07/14 08:17:55;;;;;;;1.20;0.70;;;;;;;;;;5109507;28;20288;-56
2022/07/14 08:20:44;;;;;;;1.23;1.13;;;;;;;;;;5108197;28;20205;-56
2022/07/14 08:23:32;;;;;;;1.25;1.08;;;;;;;;;;5107680;28;20300;-60
2022/07/14 08:26:19;;;;;;;1.90;0.95;;;;;;;;;;5110225;28;20248;-57
2022/07/14 08:29:06;;;;;;;1.33;0.90;;;;;;;;;;5108622;28;20327;-57
2022/07/14 08:31:53;;;;;;;1.15;1.05;;;;;;;;;;5109490;28;20673;-56
2022/07/14 08:34:40;;;;;;;1.38;1.23;;;;;;;;;;5109378;28;20633;-56
2022/07/14 08:37:28;;;;;;;1.63;1.10;;;;;;;;;;5110662;28;20257;-56
2022/07/14 08:40:18;;;;;;;1.15;0.88;;;;;;;;;;5109065;28;20194;-57
2022/07/14 08:43:05;;;;;;;1.30;1.20;;;;;;;;;;5106811;28;20198;-56
2022/07/14 08:45:53;;;;;;;0.93;0.73;;;;;;;;;;5110067;28;20232;-56
2022/07/14 08:48:40;;;;;;;1.15;0.90;;;;;;;;;;5109244;28;20280;-55
2022/07/14 08:51:27;;;;;;;2.28;1.17;;;;;;;;;;5109173;28;20214;-56
2022/07/14 08:54:16;;;;;;;1.52;1.23;;;;;;;;;;5105939;28;20662;-56
2022/07/14 08:57:03;;;;;;;1.52;0.85;;;;;;;;;;5109543;28;20202;-55
2022/07/14 08:59:50;;;;;;;2.40;1.15;;;;;;;;;;5107768;28;20232;-55
2022/07/14 09:02:38;;;;;;;1.02;0.82;;;;;;;;;;5110161;28;20208;-55
2022/07/14 09:05:25;;;;;;;1.17;0.75;;;;;;;;;;5108538;28;20359;-56
2022/07/14 09:08:13;;;;;;;1.85;1.02;;;;;;;;;;5108407;28;20233;-58
2022/07/14 09:11:02;;;;;;;1.40;0.93;;;;;;;;;;5109107;28;20198;-58
2022/07/14 09:13:50;;;;;;;1.33;0.75;;;;;;;;;;5107376;28;20210;-58
2022/07/14 09:16:37;;;;;;;1.15;0.90;;;;;;;;;;5106515;28;20244;-58
2022/07/14 09:19:25;;;;;;;0.95;0.80;;;;;;;;;;5107020;28;20624;-58
2022/07/14 09:22:11;;;;;;;1.75;0.52;;;;;;;;;;5106039;28;20213;-58
2022/07/14 09:24:59;;;;;;;1.30;0.85;;;;;;;;;;5105998;28;20194;-58
2022/07/14 09:27:47;;;;;;;1.33;0.70;;;;;;;;;;5105771;28;20208;-61
2022/07/14 09:30:35;;;;;;;0.75;0.70;;;;;;;;;;5105952;28;20292;-58
2022/07/14 09:33:22;;;;;;;2.13;0.95;;;;;;;;;;5105924;28;20237;-59
2022/07/14 09:36:20;;;;;;;1.02;0.80;;;;;;;;;;5107167;28;20233;-58
2022/07/14 09:39:09;;;;;;;1.05;0.50;;;;;;;;;;5107045;28;20305;-58
2022/07/14 09:41:59;;;;;;;0.60;0.60;;;;;;;;;;5105599;28;20206;-59
2022/07/14 09:44:48;;;;;;;0.90;0.57;;;;;;;;;;5104500;28;20221;-59
2022/07/14 09:47:52;;;;;;;1.60;0.90;;;;;;;;;;5105872;28;20229;-59
2022/07/14 09:50:46;;;;;;;1.27;0.73;;;;;;;;;;5103868;28;20569;-57
2022/07/14 09:53:35;;;;;;;0.88;0.70;;;;;;;;;;5106134;28;20267;-58
2022/07/14 09:56:22;;;;;;;0.73;0.43;;;;;;;;;;5104120;28;20205;-57
2022/07/14 09:59:09;;;;;;;1.30;0.43;;;;;;;;;;5105095;28;20198;-57
2022/07/14 10:01:57;;;;;;;1.98;0.57;;;;;;;;;;5106785;28;20282;-57
2022/07/14 10:04:45;;;;;;;0.90;0.45;;;;;;;;;;5107762;28;20213;-58
2022/07/14 10:07:35;;;;;;;0.95;0.65;;;;;;;;;;5107225;28;20237;-58
2022/07/14 10:10:22;;;;;;;0.65;0.55;;;;;;;;;;5106074;28;20209;-58
2022/07/14 10:13:09;;;;;;;0.68;0.60;;;;;;;;;;5102751;28;20676;-57
2022/07/14 10:15:58;;;;;;;0.85;0.70;;;;;;;;;;5105936;28;20194;-58
2022/07/14 10:18:46;;;;;;;0.95;0.55;;;;;;;;;;5105195;28;20290;-58
2022/07/14 10:21:35;;;;;;;1.33;0.73;;;;;;;;;;5104658;28;20227;-57
2022/07/14 10:24:24;;;;;;;1.50;0.82;;;;;;;;;;5105682;28;20206;-58
2022/07/14 10:27:11;;;;;;;1.63;0.77;;;;;;;;;;5104280;28;20233;-57
2022/07/14 10:29:59;;;;;;;2.50;0.60;;;;;;;;;;5102382;28;20282;-57
2022/07/14 10:32:56;;;;;;;0.98;0.60;;;;;;;;;;5104460;28;20875;-58
2022/07/14 10:35:53;;;;;;;1.95;0.80;;;;;;;;;;5103697;28;20237;-57
2022/07/14 10:38:58;;;;;;;1.10;0.70;;;;;;;;;;5102523;28;20555;-57
2022/07/14 10:41:56;;;;;;;1.35;0.57;;;;;;;;;;5106863;28;20224;-58
2022/07/14 10:44:46;;;;;;;0.68;0.40;;;;;;;;;;5108164;28;20221;-57
2022/07/14 10:47:49;;;;;;;1.45;0.88;;;;;;;;;;5108794;28;20637;-57
2022/07/14 10:50:36;;;;;;;0.73;0.60;;;;;;;;;;5109885;28;20283;-57
2022/07/14 10:53:24;;;;;;;1.23;0.82;;;;;;;;;;5108871;28;20213;-58
2022/07/14 10:56:24;;;;;;;0.43;0.40;;;;;;;;;;5109358;28;20221;-58
2022/07/14 10:59:34;;;;;;;0.80;0.70;;;;;;;;;;5106950;28;20334;-57
2022/07/14 11:02:33;;;;;;;1.13;0.70;;;;;;;;;;5107811;28;20674;-57
2022/07/14 11:05:20;;;;;;;1.35;0.93;;;;;;;;;;5107889;28;20766;-58
2022/07/14 11:08:11;;;;;;;1.67;0.70;;;;;;;;;;5109191;28;20214;-58
2022/07/14 11:11:00;;;;;;;1.08;0.70;;;;;;;;;;5111446;28;20198;-57
2022/07/14 11:14:11;;;;;;;0.95;0.70;;;;;;;;;;5109843;28;20288;-57
2022/07/14 11:16:59;;;;;;;1.63;0.77;;;;;;;;;;5107100;28;20206;-57
2022/07/14 11:19:52;;;;;;;1.05;0.70;;;;;;;;;;5110776;28;20252;-57
2022/07/14 11:22:41;;;;;;;1.10;0.70;;;;;;;;;;5110762;28;20704;-56
2022/07/14 11:25:28;;;;;;;1.20;0.82;;;;;;;;;;5110599;28;20205;-57
2022/07/14 11:28:39;;;;;;;0.73;0.63;;;;;;;;;;5110381;28;20221;-57
2022/07/14 11:31:27;;;;;;;1.20;0.85;;;;;;;;;;5109227;28;20695;-57
2022/07/14 11:37:26;;;;;;;1.48;0.90;;;;;;;;;;5108479;28;20712;-57
2022/07/14 11:40:40;;;;;;;1.05;0.65;;;;;;;;;;5109584;28;20219;-57
2022/07/14 11:43:55;;;;;;;1.02;0.70;;;;;;;;;;5109881;28;20204;-56
2022/07/14 11:46:58;;;;;;;1.17;0.70;;;;;;;;;;5109568;28;20233;-57
2022/07/14 11:49:56;;;;;;;1.25;0.75;;;;;;;;;;5111202;28;20287;-58
2022/07/14 11:52:44;;;;;;;1.25;0.90;;;;;;;;;;5108138;28;20286;-58
2022/07/14 11:55:38;;;;;;;1.20;0.63;;;;;;;;;;5108996;28;20209;-57
2022/07/14 11:58:25;;;;;;;1.27;0.70;;;;;;;;;;5110575;28;20205;-57
2022/07/14 12:01:14;;;;;;;1.48;0.82;;;;;;;;;;5108612;28;20205;-58
2022/07/14 12:04:09;;;;;;;1.65;0.60;;;;;;;;;;5110033;28;20970;-57
2022/07/14 12:06:56;;;;;;;1.00;0.77;;;;;;;;;;5110069;28;20239;-58
2022/07/14 12:09:43;;;;;;;1.02;0.80;;;;;;;;;;5108402;28;20677;-58
2022/07/14 12:12:40;;;;;;;1.02;0.75;;;;;;;;;;5107823;28;20644;-57
2022/07/14 12:15:28;;;;;;;0.47;0.47;;;;;;;;;;5109571;28;20201;-57
2022/07/14 12:18:16;;;;;;;1.52;0.85;;;;;;;;;;5109953;28;20576;-58
2022/07/14 12:21:03;;;;;;;3.13;0.70;;;;;;;;;;5110329;28;20212;-58
2022/07/14 12:23:51;;;;;;;2.08;0.70;;;;;;;;;;5110574;28;20673;-61
2022/07/14 12:26:39;;;;;;;0.80;0.70;;;;;;;;;;5109715;28;20225;-58
2022/07/14 12:29:26;;;;;;;1.15;0.57;;;;;;;;;;5110053;28;20285;-58
2022/07/14 12:32:15;;;;;;;1.05;0.73;;;;;;;;;;5109825;28;20213;-58
2022/07/14 12:35:05;;;;;;;1.33;0.80;;;;;;;;;;5110035;28;20209;-59
2022/07/14 12:37:53;;;;;;;0.85;0.63;;;;;;;;;;5106670;28;20654;-58
2022/07/14 12:40:41;;;;;;;2.53;0.85;;;;;;;;;;5109121;28;20202;-58
2022/07/14 12:43:29;;;;;;;1.05;0.77;;;;;;;;;;5107599;28;20297;-58
2022/07/14 12:46:18;;;;;;;0.93;0.55;;;;;;;;;;5108647;28;20344;-57
2022/07/14 12:49:06;;;;;;;0.95;0.65;;;;;;;;;;5108079;28;20689;-57
2022/07/14 12:51:54;;;;;;;1.02;0.70;;;;;;;;;;5107989;28;20583;-58
2022/07/14 12:54:42;;;;;;;0.65;0.50;;;;;;;;;;5108975;28;20273;-59
2022/07/14 12:57:34;;;;;;;1.45;0.60;;;;;;;;;;5108275;28;20204;-58
2022/07/14 13:00:21;;;;;;;1.23;0.70;;;;;;;;;;5108503;28;20214;-57
2022/07/14 13:03:13;;;;;;;0.88;0.60;;;;;;;;;;5107753;28;20283;-62
2022/07/14 13:06:00;;;;;;;1.88;1.00;;;;;;;;;;5107545;28;20687;-59
2022/07/14 13:08:50;;;;;;;1.17;0.75;;;;;;;;;;5106362;27;20713;-58
2022/07/14 13:11:37;;;;;;;1.02;0.70;;;;;;;;;;5105964;27;20222;-58
2022/07/14 13:14:24;;;;;;;1.77;1.00;;;;;;;;;;5108218;28;20284;-58
2022/07/14 13:17:11;;;;;;;2.30;0.63;;;;;;;;;;5108211;28;20202;-58
2022/07/14 13:19:58;;;;;;;1.13;0.70;;;;;;;;;;5103836;27;20280;-59
2022/07/14 13:22:56;;;;;;;1.65;0.70;;;;;;;;;;5108577;27;20261;-57
2022/07/14 13:25:45;;;;;;;1.30;0.73;;;;;;;;;;5105554;28;20213;-58
2022/07/14 13:28:36;;;;;;;1.90;0.82;;;;;;;;;;5107564;28;20226;-57
2022/07/14 13:31:25;;;;;;;2.15;0.82;;;;;;;;;;5109132;27;20209;-58
2022/07/14 13:34:16;;;;;;;1.85;1.00;;;;;;;;;;5106453;28;20819;-58
2022/07/14 13:37:05;;;;;;;1.02;0.70;;;;;;;;;;5107109;28;20231;-58
2022/07/14 13:39:51;;;;;;;5.55;1.20;;;;;;;;;;5108030;27;20284;-57
2022/07/14 13:42:40;;;;;;;0.75;0.50;;;;;;;;;;5106296;28;20683;-58
2022/07/14 13:45:27;;;;;;;2.83;1.00;;;;;;;;;;5106193;28;20217;-57
2022/07/14 13:48:15;;;;;;;2.53;0.90;;;;;;;;;;5103166;28;20225;-58
2022/07/14 13:54:07;;;;;;;1.05;0.60;;;;;;;;;;5103954;28;20242;-58
2022/07/14 13:56:55;;;;;;;2.72;0.80;;;;;;;;;;5102661;28;20210;-59
2022/07/14 13:59:44;;;;;;;1.23;0.90;;;;;;;;;;5105491;28;20695;-59
2022/07/14 14:03:22;;;;;;;2.03;0.90;;;;;;;;;;5104141;28;20212;-58
2022/07/14 14:05:37;;;;;;;2.25;0.90;;;;;;;;;;5104921;28;20267;-59
2022/07/14 14:08:26;;;;;;;0.98;0.60;;;;;;;;;;5101694;28;20225;-58
2022/07/14 14:11:13;;;;;;;1.08;0.90;;;;;;;;;;5111094;28;20581;-59
2022/07/14 14:14:01;;;;;;;1.65;0.75;;;;;;;;;;5108006;28;20204;-58
2022/07/14 14:16:49;;;;;;;1.27;0.77;;;;;;;;;;5110212;28;20250;-58
2022/07/14 14:19:36;;;;;;;1.45;0.80;;;;;;;;;;5107402;28;20712;-58
2022/07/14 14:22:23;;;;;;;1.05;0.80;;;;;;;;;;5109137;28;20212;-58
2022/07/14 14:25:10;;;;;;;1.38;1.00;;;;;;;;;;5112401;28;20257;-59
2022/07/14 14:27:57;;;;;;;1.88;1.05;;;;;;;;;;5111017;28;20254;-58
2022/07/14 14:30:44;;;;;;;1.85;0.90;;;;;;;;;;5112543;28;20334;-58
2022/07/14 14:33:33;;;;;;;1.58;0.98;;;;;;;;;;5111510;28;20198;-59
2022/07/14 14:36:20;;;;;;;1.52;0.98;;;;;;;;;;5108421;28;20286;-59
2022/07/14 14:39:07;;;;;;;1.13;0.80;;;;;;;;;;5112068;28;20206;-59
2022/07/14 14:41:54;;;;;;;1.27;0.98;;;;;;;;;;5110553;28;20510;-58
2022/07/14 14:44:41;;;;;;;1.13;1.00;;;;;;;;;;5108354;28;20218;-58
2022/07/14 14:47:28;;;;;;;1.58;0.63;;;;;;;;;;5113213;28;20220;-58
2022/07/14 14:50:16;;;;;;;2.25;0.90;;;;;;;;;;5111110;28;20206;-59
2022/07/14 14:53:04;;;;;;;2.75;0.90;;;;;;;;;;5111485;28;20264;-58
2022/07/14 14:55:51;;;;;;;2.22;0.70;;;;;;;;;;5111578;28;20279;-58
2022/07/14 14:58:38;;;;;;;1.33;0.80;;;;;;;;;;5109875;28;20232;-58
2022/07/14 15:01:25;;;;;;;1.40;0.77;;;;;;;;;;5110790;28;20783;-59
2022/07/14 15:04:12;;;;;;;1.23;0.82;;;;;;;;;;5111362;28;20697;-58
2022/07/14 15:07:00;;;;;;;2.03;0.90;;;;;;;;;;5111064;28;20221;-58
2022/07/14 15:09:47;;;;;;;1.33;0.90;;;;;;;;;;5108269;28;20211;-58
2022/07/14 15:12:34;;;;;;;2.13;0.88;;;;;;;;;;5110569;28;20209;-58
2022/07/14 15:15:21;;;;;;;1.98;1.10;;;;;;;;;;5110917;28;20212;-59
2022/07/14 15:18:08;;;;;;;1.35;0.68;;;;;;;;;;5108088;28;20210;-58
2022/07/14 15:20:55;;;;;;;1.00;0.73;;;;;;;;;;5109686;28;20210;-58
2022/07/14 15:23:44;;;;;;;0.63;0.60;;;;;;;;;;5111235;28;20288;-58
2022/07/14 15:26:31;;;;;;;1.73;0.98;;;;;;;;;;5111194;28;20227;-58
2022/07/14 15:29:20;;;;;;;1.65;0.73;;;;;;;;;;5109929;28;20673;-58
2022/07/14 15:32:07;;;;;;;0.93;0.70;;;;;;;;;;5109980;28;20216;-58
2022/07/14 15:34:54;;;;;;;1.23;1.10;;;;;;;;;;5109724;28;20217;-59
2022/07/14 15:37:41;;;;;;;1.80;0.85;;;;;;;;;;5110028;28;20230;-58
2022/07/14 15:43:35;;;;;;;2.22;1.13;;;;;;;;;;5109754;28;20213;-58
2022/07/14 15:46:22;;;;;;;1.52;0.55;;;;;;;;;;5112310;28;20205;-57
2022/07/14 15:49:11;;;;;;;0.88;0.38;;;;;;;;;;5109762;28;20225;-59
2022/07/14 15:51:58;;;;;;;2.25;1.00;;;;;;;;;;5108208;28;20289;-59
2022/07/14 15:54:45;;;;;;;1.50;0.60;;;;;;;;;;5112997;28;20213;-58
2022/07/14 15:57:33;;;;;;;0.90;0.90;;;;;;;;;;5110785;28;20209;-59
2022/07/14 16:00:20;;;;;;;1.58;0.85;;;;;;;;;;5106015;28;20291;-59
2022/07/14 16:03:07;;;;;;;1.20;0.55;;;;;;;;;;5110215;28;20703;-58
2022/07/14 16:05:54;;;;;;;0.75;0.65;;;;;;;;;;5111418;28;20700;-61
2022/07/14 16:08:41;;;;;;;0.82;0.80;;;;;;;;;;5110137;28;20308;-57
2022/07/14 16:11:28;;;;;;;1.33;0.60;;;;;;;;;;5111059;28;20209;-58
2022/07/14 16:14:17;;;;;;;0.50;0.50;;;;;;;;;;5105674;28;20206;-62
2022/07/14 16:17:03;;;;;;;1.48;1.05;;;;;;;;;;5107919;28;20213;-58
2022/07/14 16:19:50;;;;;;;0.77;0.65;;;;;;;;;;5107119;28;20194;-58
2022/07/14 16:22:37;;;;;;;1.15;0.70;;;;;;;;;;5106582;28;20215;-58
2022/07/14 16:25:25;;;;;;;1.38;0.80;;;;;;;;;;5106768;28;20250;-58
2022/07/14 16:28:11;;;;;;;1.63;0.73;;;;;;;;;;5104131;28;20265;-58
2022/07/14 16:31:00;;;;;;;1.20;0.90;;;;;;;;;;5106625;28;20713;-58
2022/07/14 16:33:47;;;;;;;0.88;0.77;;;;;;;;;;5105182;28;20681;-58
2022/07/14 16:36:34;;;;;;;1.60;0.80;;;;;;;;;;5103823;28;20265;-58
2022/07/14 16:39:22;;;;;;;1.50;0.80;;;;;;;;;;5105762;28;20261;-59
2022/07/14 16:42:10;;;;;;;1.00;0.75;;;;;;;;;;5105155;28;20205;-59
2022/07/14 16:44:57;;;;;;;1.08;0.95;;;;;;;;;;5104589;28;20747;-58
2022/07/14 16:47:46;;;;;;;1.65;1.00;;;;;;;;;;5103543;28;20209;-60
2022/07/14 16:50:33;;;;;;;0.70;0.60;;;;;;;;;;5103078;28;20205;-58
2022/07/14 16:53:20;;;;;;;1.55;0.98;;;;;;;;;;5105873;28;20212;-58
2022/07/14 16:56:08;;;;;;;1.33;0.82;;;;;;;;;;5104185;28;20282;-58
2022/07/14 16:58:55;;;;;;;0.80;0.57;;;;;;;;;;5105989;28;20198;-58
2022/07/14 17:01:42;;;;;;;1.02;0.90;;;;;;;;;;5106570;28;20692;-58
2022/07/14 17:04:30;;;;;;;0.73;0.68;;;;;;;;;;5106538;28;20604;-58
2022/07/14 17:07:17;;;;;;;1.27;0.90;;;;;;;;;;5106955;28;20216;-57